sensor_id;sensor_type;location;lat;lon;timestamp;temperature;humidity
6110;DHT22;3085;49.444;11.054;2022-11-15T00:01:56;8.30;99.90
6110;DHT22;3085;49.444;11.054;2022-11-15T00:04:23;8.30;99.90
6110;DHT22;3085;49.444;11.054;2022-11-15T00:06:50;8.30;99.90
6110;DHT22;3085;49.444;11.054;2022-11-15T00:09:18;8.30;99.90
6110;DHT22;3085;49.444;11.054;2022-11-15T00:11:45;8.30;99.90
6110;DHT22;3085;49.444;11.054;2022-11-15T00:14:11;8.30;99.90
6110;DHT22;3085;49.444;11.054;2022-11-15T00:16:38;8.30;99.90
6110;DHT22;3085;49.444;11.054;2022-11-15T00:19:05;8.30;99.90
6110;DHT22;3085;49.444;11.054;2022-11-15T00:21:32;8.20;99.90
6110;DHT22;3085;49.444;11.054;2022-11-15T00:23:58;8.20;99.90
6110;DHT22;3085;49.444;11.054;2022-11-15T00:26:27;8.10;99.90
6110;DHT22;3085;49.444;11.054;2022-11-15T00:28:53;8.10;99.90
6110;DHT22;3085;49.444;11.054;2022-11-15T00:31:20;8.20;99.90
6110;DHT22;3085;49.444;11.054;2022-11-15T00:33:47;8.10;99.90
6110;DHT22;3085;49.444;11.054;2022-11-15T00:36:14;8.20;99.90
6110;DHT22;3085;49.444;11.054;2022-11-15T00:38:40;8.10;99.90
6110;DHT22;3085;49.444;11.054;2022-11-15T00:41:07;9.10;99.90
6110;DHT22;3085;49.444;11.054;2022-11-15T00:43:36;7.80;99.90
6110;DHT22;3085;49.444;11.054;2022-11-15T00:46:05;8.20;99.90
6110;DHT22;3085;49.444;11.054;2022-11-15T00:48:33;8.00;99.90
6110;DHT22;3085;49.444;11.054;2022-11-15T00:51:03;8.00;99.90
6110;DHT22;3085;49.444;11.054;2022-11-15T00:53:30;8.00;99.90
6110;DHT22;3085;49.444;11.054;2022-11-15T00:55:56;8.00;99.90
6110;DHT22;3085;49.444;11.054;2022-11-15T00:58:23;7.90;99.90
6110;DHT22;3085;49.444;11.054;2022-11-15T01:00:51;7.80;99.90
6110;DHT22;3085;49.444;11.054;2022-11-15T01:03:18;7.90;99.90
6110;DHT22;3085;49.444;11.054;2022-11-15T01:05:45;7.80;99.90
6110;DHT22;3085;49.444;11.054;2022-11-15T01:08:12;7.80;99.90
6110;DHT22;3085;49.444;11.054;2022-11-15T01:10:39;7.80;99.90
6110;DHT22;3085;49.444;11.054;2022-11-15T01:13:06;7.90;99.90
6110;DHT22;3085;49.444;11.054;2022-11-15T01:15:33;7.80;99.90
6110;DHT22;3085;49.444;11.054;2022-11-15T01:18:01;7.80;99.90
6110;DHT22;3085;49.444;11.054;2022-11-15T01:20:28;7.80;99.90
6110;DHT22;3085;49.444;11.054;2022-11-15T01:22:54;7.80;99.90
6110;DHT22;3085;49.444;11.054;2022-11-15T01:25:21;7.80;99.90
6110;DHT22;3085;49.444;11.054;2022-11-15T01:27:48;7.70;99.90
6110;DHT22;3085;49.444;11.054;2022-11-15T01:30:15;7.70;99.90
6110;DHT22;3085;49.444;11.054;2022-11-15T01:32:42;7.70;99.90
6110;DHT22;3085;49.444;11.054;2022-11-15T01:35:10;7.70;99.90
6110;DHT22;3085;49.444;11.054;2022-11-15T01:37:36;7.70;99.90
6110;DHT22;3085;49.444;11.054;2022-11-15T01:40:04;7.60;99.90
6110;DHT22;3085;49.444;11.054;2022-11-15T01:42:31;7.70;99.90
6110;DHT22;3085;49.444;11.054;2022-11-15T01:44:58;7.70;99.90
6110;DHT22;3085;49.444;11.054;2022-11-15T01:47:27;7.80;99.90
6110;DHT22;3085;49.444;11.054;2022-11-15T01:49:59;7.70;99.90
6110;DHT22;3085;49.444;11.054;2022-11-15T01:52:30;7.70;99.90
6110;DHT22;3085;49.444;11.054;2022-11-15T01:55:02;7.60;99.90
6110;DHT22;3085;49.444;11.054;2022-11-15T01:57:29;7.80;99.90
6110;DHT22;3085;49.444;11.054;2022-11-15T01:59:57;7.70;99.90
6110;DHT22;3085;49.444;11.054;2022-11-15T02:02:26;7.70;99.90
6110;DHT22;3085;49.444;11.054;2022-11-15T02:04:54;7.70;99.90
6110;DHT22;3085;49.444;11.054;2022-11-15T02:07:22;7.60;99.90
6110;DHT22;3085;49.444;11.054;2022-11-15T02:09:50;7.60;99.90
6110;DHT22;3085;49.444;11.054;2022-11-15T02:12:19;7.60;99.90
6110;DHT22;3085;49.444;11.054;2022-11-15T02:14:49;7.70;99.90
6110;DHT22;3085;49.444;11.054;2022-11-15T02:17:33;7.70;99.90
6110;DHT22;3085;49.444;11.054;2022-11-15T02:20:21;7.70;99.90
6110;DHT22;3085;49.444;11.054;2022-11-15T02:23:04;7.70;99.90
6110;DHT22;3085;49.444;11.054;2022-11-15T02:25:44;7.70;99.90
6110;DHT22;3085;49.444;11.054;2022-11-15T02:28:37;7.70;99.90
6110;DHT22;3085;49.444;11.054;2022-11-15T02:31:11;7.80;99.90
6110;DHT22;3085;49.444;11.054;2022-11-15T02:33:49;7.80;99.90
6110;DHT22;3085;49.444;11.054;2022-11-15T02:36:28;7.80;99.90
6110;DHT22;3085;49.444;11.054;2022-11-15T02:39:02;7.70;99.90
6110;DHT22;3085;49.444;11.054;2022-11-15T02:41:34;9.20;99.90
6110;DHT22;3085;49.444;11.054;2022-11-15T02:44:06;7.70;99.90
6110;DHT22;3085;49.444;11.054;2022-11-15T02:46:36;7.70;99.90
6110;DHT22;3085;49.444;11.054;2022-11-15T02:49:23;7.60;99.90
6110;DHT22;3085;49.444;11.054;2022-11-15T02:51:51;7.60;99.90
6110;DHT22;3085;49.444;11.054;2022-11-15T02:54:22;7.60;99.90
6110;DHT22;3085;49.444;11.054;2022-11-15T02:56:50;7.60;99.90
6110;DHT22;3085;49.444;11.054;2022-11-15T02:59:49;7.50;99.90
6110;DHT22;3085;49.444;11.054;2022-11-15T03:02:36;7.60;99.90
6110;DHT22;3085;49.444;11.054;2022-11-15T03:05:12;7.50;99.90
6110;DHT22;3085;49.444;11.054;2022-11-15T03:07:48;7.50;99.90
6110;DHT22;3085;49.444;11.054;2022-11-15T03:10:20;7.50;99.90
6110;DHT22;3085;49.444;11.054;2022-11-15T03:12:55;7.60;99.90
6110;DHT22;3085;49.444;11.054;2022-11-15T03:15:27;7.60;99.90
6110;DHT22;3085;49.444;11.054;2022-11-15T03:18:00;7.50;99.90
6110;DHT22;3085;49.444;11.054;2022-11-15T03:20:29;7.60;99.90
6110;DHT22;3085;49.444;11.054;2022-11-15T03:23:05;7.50;99.90
6110;DHT22;3085;49.444;11.054;2022-11-15T03:25:34;7.50;99.90
6110;DHT22;3085;49.444;11.054;2022-11-15T03:28:05;7.50;99.90
6110;DHT22;3085;49.444;11.054;2022-11-15T03:30:34;7.50;99.90
6110;DHT22;3085;49.444;11.054;2022-11-15T03:33:04;7.60;99.90
6110;DHT22;3085;49.444;11.054;2022-11-15T03:35:37;7.50;99.90
6110;DHT22;3085;49.444;11.054;2022-11-15T03:38:08;7.40;99.90
6110;DHT22;3085;49.444;11.054;2022-11-15T03:40:39;7.40;99.90
6110;DHT22;3085;49.444;11.054;2022-11-15T03:43:10;7.40;99.90
6110;DHT22;3085;49.444;11.054;2022-11-15T03:45:43;7.50;99.90
6110;DHT22;3085;49.444;11.054;2022-11-15T03:48:15;7.50;99.90
6110;DHT22;3085;49.444;11.054;2022-11-15T03:50:43;7.50;99.90
6110;DHT22;3085;49.444;11.054;2022-11-15T03:53:12;7.50;99.90
6110;DHT22;3085;49.444;11.054;2022-11-15T03:55:39;7.40;99.90
6110;DHT22;3085;49.444;11.054;2022-11-15T03:58:06;7.40;99.90
6110;DHT22;3085;49.444;11.054;2022-11-15T04:00:33;7.40;99.90
6110;DHT22;3085;49.444;11.054;2022-11-15T04:02:59;7.50;99.90
6110;DHT22;3085;49.444;11.054;2022-11-15T04:05:28;7.50;99.90
6110;DHT22;3085;49.444;11.054;2022-11-15T04:07:54;7.30;99.90
6110;DHT22;3085;49.444;11.054;2022-11-15T04:10:21;7.50;99.90
6110;DHT22;3085;49.444;11.054;2022-11-15T04:12:48;7.50;99.90
6110;DHT22;3085;49.444;11.054;2022-11-15T04:15:16;7.50;99.90
6110;DHT22;3085;49.444;11.054;2022-11-15T04:17:45;7.50;99.90
6110;DHT22;3085;49.444;11.054;2022-11-15T04:20:15;7.50;99.90
6110;DHT22;3085;49.444;11.054;2022-11-15T04:23:02;7.50;99.90
6110;DHT22;3085;49.444;11.054;2022-11-15T04:25:50;7.50;99.90
6110;DHT22;3085;49.444;11.054;2022-11-15T04:28:17;7.50;99.90
6110;DHT22;3085;49.444;11.054;2022-11-15T04:30:44;7.50;99.90
6110;DHT22;3085;49.444;11.054;2022-11-15T04:33:11;7.50;99.90
6110;DHT22;3085;49.444;11.054;2022-11-15T04:35:38;7.50;99.90
6110;DHT22;3085;49.444;11.054;2022-11-15T04:38:08;7.50;99.90
6110;DHT22;3085;49.444;11.054;2022-11-15T04:40:35;7.50;99.90
6110;DHT22;3085;49.444;11.054;2022-11-15T04:43:03;7.40;99.90
6110;DHT22;3085;49.444;11.054;2022-11-15T04:45:30;7.40;99.90
6110;DHT22;3085;49.444;11.054;2022-11-15T04:47:57;7.40;99.90
6110;DHT22;3085;49.444;11.054;2022-11-15T04:50:23;7.40;99.90
6110;DHT22;3085;49.444;11.054;2022-11-15T04:52:52;7.20;99.90
6110;DHT22;3085;49.444;11.054;2022-11-15T04:55:20;7.20;99.90
6110;DHT22;3085;49.444;11.054;2022-11-15T04:57:47;7.20;99.90
6110;DHT22;3085;49.444;11.054;2022-11-15T05:00:16;7.20;99.90
6110;DHT22;3085;49.444;11.054;2022-11-15T05:02:43;7.20;99.90
6110;DHT22;3085;49.444;11.054;2022-11-15T05:05:27;7.10;99.90
6110;DHT22;3085;49.444;11.054;2022-11-15T05:07:54;7.10;99.90
6110;DHT22;3085;49.444;11.054;2022-11-15T05:10:22;7.00;99.90
6110;DHT22;3085;49.444;11.054;2022-11-15T05:12:49;7.00;99.90
6110;DHT22;3085;49.444;11.054;2022-11-15T05:15:16;7.00;99.90
6110;DHT22;3085;49.444;11.054;2022-11-15T05:17:42;7.00;99.90
6110;DHT22;3085;49.444;11.054;2022-11-15T05:20:10;6.90;99.90
6110;DHT22;3085;49.444;11.054;2022-11-15T05:22:37;7.00;99.90
6110;DHT22;3085;49.444;11.054;2022-11-15T05:25:05;7.00;99.90
6110;DHT22;3085;49.444;11.054;2022-11-15T05:27:34;7.00;99.90
6110;DHT22;3085;49.444;11.054;2022-11-15T05:30:01;7.10;99.90
6110;DHT22;3085;49.444;11.054;2022-11-15T05:32:28;7.10;99.90
6110;DHT22;3085;49.444;11.054;2022-11-15T05:34:55;7.10;99.90
6110;DHT22;3085;49.444;11.054;2022-11-15T05:37:22;7.10;99.90
6110;DHT22;3085;49.444;11.054;2022-11-15T05:39:49;7.10;99.90
6110;DHT22;3085;49.444;11.054;2022-11-15T05:42:16;7.10;99.90
6110;DHT22;3085;49.444;11.054;2022-11-15T05:44:46;7.30;99.90
6110;DHT22;3085;49.444;11.054;2022-11-15T05:47:18;7.10;99.90
6110;DHT22;3085;49.444;11.054;2022-11-15T05:49:47;7.10;99.90
6110;DHT22;3085;49.444;11.054;2022-11-15T05:52:17;7.00;99.90
6110;DHT22;3085;49.444;11.054;2022-11-15T05:54:45;7.10;99.90
6110;DHT22;3085;49.444;11.054;2022-11-15T05:57:12;7.10;99.90
6110;DHT22;3085;49.444;11.054;2022-11-15T05:59:39;7.10;99.90
6110;DHT22;3085;49.444;11.054;2022-11-15T06:02:07;7.10;99.90
6110;DHT22;3085;49.444;11.054;2022-11-15T06:04:34;7.10;99.90
6110;DHT22;3085;49.444;11.054;2022-11-15T06:07:01;7.10;99.90
6110;DHT22;3085;49.444;11.054;2022-11-15T06:09:28;7.20;99.90
6110;DHT22;3085;49.444;11.054;2022-11-15T06:11:54;7.00;99.90
6110;DHT22;3085;49.444;11.054;2022-11-15T06:14:21;7.00;99.90
6110;DHT22;3085;49.444;11.054;2022-11-15T06:16:48;7.00;99.90
6110;DHT22;3085;49.444;11.054;2022-11-15T06:19:16;7.10;99.90
6110;DHT22;3085;49.444;11.054;2022-11-15T06:21:43;7.60;99.90
6110;DHT22;3085;49.444;11.054;2022-11-15T06:24:10;7.10;99.90
6110;DHT22;3085;49.444;11.054;2022-11-15T06:26:36;7.10;99.90
6110;DHT22;3085;49.444;11.054;2022-11-15T06:29:04;6.90;99.90
6110;DHT22;3085;49.444;11.054;2022-11-15T06:31:30;7.00;99.90
6110;DHT22;3085;49.444;11.054;2022-11-15T06:33:57;7.00;99.90
6110;DHT22;3085;49.444;11.054;2022-11-15T06:36:25;7.00;99.90
6110;DHT22;3085;49.444;11.054;2022-11-15T06:38:52;7.00;99.90
6110;DHT22;3085;49.444;11.054;2022-11-15T06:41:19;7.00;99.90
6110;DHT22;3085;49.444;11.054;2022-11-15T06:43:46;7.10;99.90
6110;DHT22;3085;49.444;11.054;2022-11-15T06:46:13;7.10;99.90
6110;DHT22;3085;49.444;11.054;2022-11-15T06:48:40;7.10;99.90
6110;DHT22;3085;49.444;11.054;2022-11-15T06:51:06;7.20;99.90
6110;DHT22;3085;49.444;11.054;2022-11-15T06:53:35;7.60;99.90
6110;DHT22;3085;49.444;11.054;2022-11-15T06:56:03;8.10;99.90
6110;DHT22;3085;49.444;11.054;2022-11-15T06:58:31;8.30;99.90
6110;DHT22;3085;49.444;11.054;2022-11-15T07:00:59;8.20;99.90
6110;DHT22;3085;49.444;11.054;2022-11-15T07:03:26;8.50;99.90
6110;DHT22;3085;49.444;11.054;2022-11-15T07:05:53;8.10;99.90
6110;DHT22;3085;49.444;11.054;2022-11-15T07:08:21;8.00;99.90
6110;DHT22;3085;49.444;11.054;2022-11-15T07:10:50;7.90;99.90
6110;DHT22;3085;49.444;11.054;2022-11-15T07:13:16;7.70;99.90
6110;DHT22;3085;49.444;11.054;2022-11-15T07:15:43;7.80;99.90
6110;DHT22;3085;49.444;11.054;2022-11-15T07:18:10;7.70;99.90
6110;DHT22;3085;49.444;11.054;2022-11-15T07:20:37;7.60;99.90
6110;DHT22;3085;49.444;11.054;2022-11-15T07:23:05;7.80;99.90
6110;DHT22;3085;49.444;11.054;2022-11-15T07:25:32;7.50;99.90
6110;DHT22;3085;49.444;11.054;2022-11-15T07:28:01;7.50;99.90
6110;DHT22;3085;49.444;11.054;2022-11-15T07:30:28;7.50;99.90
6110;DHT22;3085;49.444;11.054;2022-11-15T07:32:56;7.80;99.90
6110;DHT22;3085;49.444;11.054;2022-11-15T07:35:23;7.60;99.90
6110;DHT22;3085;49.444;11.054;2022-11-15T07:37:54;7.60;99.90
6110;DHT22;3085;49.444;11.054;2022-11-15T07:40:21;7.60;99.90
6110;DHT22;3085;49.444;11.054;2022-11-15T07:42:48;7.70;99.90
6110;DHT22;3085;49.444;11.054;2022-11-15T07:45:24;7.70;99.90
6110;DHT22;3085;49.444;11.054;2022-11-15T07:47:52;7.80;99.90
6110;DHT22;3085;49.444;11.054;2022-11-15T07:50:19;7.80;99.90
6110;DHT22;3085;49.444;11.054;2022-11-15T07:52:46;7.90;99.90
6110;DHT22;3085;49.444;11.054;2022-11-15T07:55:13;8.00;99.90
6110;DHT22;3085;49.444;11.054;2022-11-15T07:57:40;8.00;99.90
6110;DHT22;3085;49.444;11.054;2022-11-15T08:00:08;8.10;99.90
6110;DHT22;3085;49.444;11.054;2022-11-15T08:02:36;8.10;99.90
6110;DHT22;3085;49.444;11.054;2022-11-15T08:05:03;8.20;99.90
6110;DHT22;3085;49.444;11.054;2022-11-15T08:07:30;8.20;99.90
6110;DHT22;3085;49.444;11.054;2022-11-15T08:09:58;8.30;99.90
6110;DHT22;3085;49.444;11.054;2022-11-15T08:12:27;8.30;99.90
6110;DHT22;3085;49.444;11.054;2022-11-15T08:14:54;8.40;99.90
6110;DHT22;3085;49.444;11.054;2022-11-15T08:17:21;8.50;99.90
6110;DHT22;3085;49.444;11.054;2022-11-15T08:19:49;8.50;99.90
6110;DHT22;3085;49.444;11.054;2022-11-15T08:22:16;8.60;99.90
6110;DHT22;3085;49.444;11.054;2022-11-15T08:24:43;8.60;99.90
6110;DHT22;3085;49.444;11.054;2022-11-15T08:27:10;8.70;99.90
6110;DHT22;3085;49.444;11.054;2022-11-15T08:29:42;8.70;99.90
6110;DHT22;3085;49.444;11.054;2022-11-15T08:32:08;8.80;99.90
6110;DHT22;3085;49.444;11.054;2022-11-15T08:34:35;8.90;99.90
6110;DHT22;3085;49.444;11.054;2022-11-15T08:37:03;9.00;99.90
6110;DHT22;3085;49.444;11.054;2022-11-15T08:39:31;9.00;99.90
6110;DHT22;3085;49.444;11.054;2022-11-15T08:41:58;9.20;99.90
6110;DHT22;3085;49.444;11.054;2022-11-15T08:44:25;9.20;99.90
6110;DHT22;3085;49.444;11.054;2022-11-15T08:46:51;9.20;99.90
6110;DHT22;3085;49.444;11.054;2022-11-15T08:49:18;9.30;99.90
6110;DHT22;3085;49.444;11.054;2022-11-15T08:51:45;9.40;99.90
6110;DHT22;3085;49.444;11.054;2022-11-15T08:54:13;9.40;99.90
6110;DHT22;3085;49.444;11.054;2022-11-15T08:56:40;9.40;99.90
6110;DHT22;3085;49.444;11.054;2022-11-15T08:59:07;9.60;99.90
6110;DHT22;3085;49.444;11.054;2022-11-15T09:01:34;10.00;99.90
6110;DHT22;3085;49.444;11.054;2022-11-15T09:04:00;9.60;99.90
6110;DHT22;3085;49.444;11.054;2022-11-15T09:06:27;9.70;99.90
6110;DHT22;3085;49.444;11.054;2022-11-15T09:08:54;9.70;99.90
6110;DHT22;3085;49.444;11.054;2022-11-15T09:11:22;9.80;99.90
6110;DHT22;3085;49.444;11.054;2022-11-15T09:13:49;9.80;99.90
6110;DHT22;3085;49.444;11.054;2022-11-15T09:16:15;9.90;99.90
6110;DHT22;3085;49.444;11.054;2022-11-15T09:18:42;10.00;99.90
6110;DHT22;3085;49.444;11.054;2022-11-15T09:21:09;10.00;99.90
6110;DHT22;3085;49.444;11.054;2022-11-15T09:23:36;10.10;99.90
6110;DHT22;3085;49.444;11.054;2022-11-15T09:26:04;10.20;99.90
6110;DHT22;3085;49.444;11.054;2022-11-15T09:28:33;10.10;99.90
6110;DHT22;3085;49.444;11.054;2022-11-15T09:31:02;10.20;99.90
6110;DHT22;3085;49.444;11.054;2022-11-15T09:33:29;10.20;99.90
6110;DHT22;3085;49.444;11.054;2022-11-15T09:36:00;10.30;99.90
6110;DHT22;3085;49.444;11.054;2022-11-15T09:38:27;10.30;99.90
6110;DHT22;3085;49.444;11.054;2022-11-15T09:41:08;10.40;99.90
6110;DHT22;3085;49.444;11.054;2022-11-15T09:43:47;10.40;99.90
6110;DHT22;3085;49.444;11.054;2022-11-15T09:46:19;10.50;99.90
6110;DHT22;3085;49.444;11.054;2022-11-15T09:48:51;10.50;99.90
6110;DHT22;3085;49.444;11.054;2022-11-15T09:51:25;10.60;99.90
6110;DHT22;3085;49.444;11.054;2022-11-15T09:53:59;10.60;99.90
6110;DHT22;3085;49.444;11.054;2022-11-15T09:56:30;10.70;99.90
6110;DHT22;3085;49.444;11.054;2022-11-15T09:59:06;10.80;99.90
6110;DHT22;3085;49.444;11.054;2022-11-15T10:01:41;10.80;99.90
6110;DHT22;3085;49.444;11.054;2022-11-15T10:04:11;10.90;99.90
6110;DHT22;3085;49.444;11.054;2022-11-15T10:06:42;11.00;99.90
6110;DHT22;3085;49.444;11.054;2022-11-15T10:09:14;11.10;99.90
6110;DHT22;3085;49.444;11.054;2022-11-15T10:11:42;11.20;99.90
6110;DHT22;3085;49.444;11.054;2022-11-15T10:14:13;11.30;99.90
6110;DHT22;3085;49.444;11.054;2022-11-15T10:17:06;11.30;99.90
6110;DHT22;3085;49.444;11.054;2022-11-15T10:19:43;11.40;99.90
6110;DHT22;3085;49.444;11.054;2022-11-15T10:22:24;11.40;99.90
6110;DHT22;3085;49.444;11.054;2022-11-15T10:25:00;11.50;99.90
6110;DHT22;3085;49.444;11.054;2022-11-15T10:27:36;11.70;99.90
6110;DHT22;3085;49.444;11.054;2022-11-15T10:30:11;11.70;99.90
6110;DHT22;3085;49.444;11.054;2022-11-15T10:32:39;11.70;99.90
6110;DHT22;3085;49.444;11.054;2022-11-15T10:35:21;11.80;99.90
6110;DHT22;3085;49.444;11.054;2022-11-15T10:37:48;11.90;99.90
6110;DHT22;3085;49.444;11.054;2022-11-15T10:40:18;12.00;99.90
6110;DHT22;3085;49.444;11.054;2022-11-15T10:42:47;12.10;99.90
6110;DHT22;3085;49.444;11.054;2022-11-15T10:45:30;12.10;99.90
6110;DHT22;3085;49.444;11.054;2022-11-15T10:48:21;12.30;99.90
6110;DHT22;3085;49.444;11.054;2022-11-15T10:50:49;12.30;99.90
6110;DHT22;3085;49.444;11.054;2022-11-15T10:53:25;12.40;99.90
6110;DHT22;3085;49.444;11.054;2022-11-15T10:55:54;12.60;99.90
6110;DHT22;3085;49.444;11.054;2022-11-15T10:58:32;12.60;99.90
6110;DHT22;3085;49.444;11.054;2022-11-15T11:01:14;12.60;99.90
6110;DHT22;3085;49.444;11.054;2022-11-15T11:03:42;12.70;99.90
6110;DHT22;3085;49.444;11.054;2022-11-15T11:06:12;12.70;99.90
6110;DHT22;3085;49.444;11.054;2022-11-15T11:08:40;12.80;99.90
6110;DHT22;3085;49.444;11.054;2022-11-15T11:11:07;12.90;99.90
6110;DHT22;3085;49.444;11.054;2022-11-15T11:13:36;12.90;99.90
6110;DHT22;3085;49.444;11.054;2022-11-15T11:16:26;12.90;99.90
6110;DHT22;3085;49.444;11.054;2022-11-15T11:19:05;12.90;99.90
6110;DHT22;3085;49.444;11.054;2022-11-15T11:21:42;13.20;99.90
6110;DHT22;3085;49.444;11.054;2022-11-15T11:24:16;13.20;99.90
6110;DHT22;3085;49.444;11.054;2022-11-15T11:26:49;13.20;99.90
6110;DHT22;3085;49.444;11.054;2022-11-15T11:29:30;13.20;99.90
6110;DHT22;3085;49.444;11.054;2022-11-15T11:32:10;13.30;99.90
6110;DHT22;3085;49.444;11.054;2022-11-15T11:34:49;13.50;99.90
6110;DHT22;3085;49.444;11.054;2022-11-15T11:37:21;13.50;99.90
6110;DHT22;3085;49.444;11.054;2022-11-15T11:39:56;13.60;99.90
6110;DHT22;3085;49.444;11.054;2022-11-15T11:42:36;13.60;99.90
6110;DHT22;3085;49.444;11.054;2022-11-15T11:45:15;13.60;99.90
6110;DHT22;3085;49.444;11.054;2022-11-15T11:47:51;13.70;99.90
6110;DHT22;3085;49.444;11.054;2022-11-15T11:50:25;13.70;99.90
6110;DHT22;3085;49.444;11.054;2022-11-15T11:52:57;13.70;99.90
6110;DHT22;3085;49.444;11.054;2022-11-15T11:55:27;13.90;99.90
6110;DHT22;3085;49.444;11.054;2022-11-15T11:58:04;13.90;99.90
6110;DHT22;3085;49.444;11.054;2022-11-15T12:00:35;13.80;99.90
6110;DHT22;3085;49.444;11.054;2022-11-15T12:03:11;13.90;99.90
6110;DHT22;3085;49.444;11.054;2022-11-15T12:05:41;14.00;99.90
6110;DHT22;3085;49.444;11.054;2022-11-15T12:08:23;14.00;99.90
6110;DHT22;3085;49.444;11.054;2022-11-15T12:10:58;14.00;99.90
6110;DHT22;3085;49.444;11.054;2022-11-15T12:13:29;14.00;99.90
6110;DHT22;3085;49.444;11.054;2022-11-15T12:16:05;14.00;99.90
6110;DHT22;3085;49.444;11.054;2022-11-15T12:18:34;14.00;99.90
6110;DHT22;3085;49.444;11.054;2022-11-15T12:21:03;14.10;99.90
6110;DHT22;3085;49.444;11.054;2022-11-15T12:23:38;14.20;99.90
6110;DHT22;3085;49.444;11.054;2022-11-15T12:26:09;14.30;99.90
6110;DHT22;3085;49.444;11.054;2022-11-15T12:28:41;14.30;99.90
6110;DHT22;3085;49.444;11.054;2022-11-15T12:31:12;14.30;99.90
6110;DHT22;3085;49.444;11.054;2022-11-15T12:33:46;14.10;99.90
6110;DHT22;3085;49.444;11.054;2022-11-15T12:36:32;14.10;99.90
6110;DHT22;3085;49.444;11.054;2022-11-15T12:39:02;14.20;99.90
6110;DHT22;3085;49.444;11.054;2022-11-15T12:41:30;14.20;99.90
6110;DHT22;3085;49.444;11.054;2022-11-15T12:43:57;14.20;99.90
6110;DHT22;3085;49.444;11.054;2022-11-15T12:49:44;14.20;99.90
6110;DHT22;3085;49.444;11.054;2022-11-15T12:52:11;14.30;99.90
6110;DHT22;3085;49.444;11.054;2022-11-15T12:54:58;14.30;99.90
6110;DHT22;3085;49.444;11.054;2022-11-15T12:57:39;14.30;99.90
6110;DHT22;3085;49.444;11.054;2022-11-15T13:03:27;14.30;99.90
6110;DHT22;3085;49.444;11.054;2022-11-15T13:06:08;14.20;99.90
6110;DHT22;3085;49.444;11.054;2022-11-15T13:08:47;14.10;99.90
6110;DHT22;3085;49.444;11.054;2022-11-15T13:11:46;14.20;99.90
6110;DHT22;3085;49.444;11.054;2022-11-15T13:14:49;14.20;99.90
6110;DHT22;3085;49.444;11.054;2022-11-15T13:17:29;14.10;99.90
6110;DHT22;3085;49.444;11.054;2022-11-15T13:20:22;14.10;99.90
6110;DHT22;3085;49.444;11.054;2022-11-15T13:22:53;14.20;99.90
6110;DHT22;3085;49.444;11.054;2022-11-15T13:25:44;14.10;99.90
6110;DHT22;3085;49.444;11.054;2022-11-15T13:28:21;14.10;99.90
6110;DHT22;3085;49.444;11.054;2022-11-15T13:30:51;14.10;99.90
6110;DHT22;3085;49.444;11.054;2022-11-15T13:33:20;14.10;99.90
6110;DHT22;3085;49.444;11.054;2022-11-15T13:35:50;14.10;99.90
6110;DHT22;3085;49.444;11.054;2022-11-15T13:38:26;14.10;99.90
6110;DHT22;3085;49.444;11.054;2022-11-15T13:40:53;14.00;99.90
6110;DHT22;3085;49.444;11.054;2022-11-15T13:43:27;13.90;99.90
6110;DHT22;3085;49.444;11.054;2022-11-15T13:46:05;14.00;99.90
6110;DHT22;3085;49.444;11.054;2022-11-15T13:48:33;14.00;99.90
6110;DHT22;3085;49.444;11.054;2022-11-15T13:51:00;14.20;99.90
6110;DHT22;3085;49.444;11.054;2022-11-15T13:53:30;14.50;99.90
6110;DHT22;3085;49.444;11.054;2022-11-15T13:55:58;14.80;99.90
6110;DHT22;3085;49.444;11.054;2022-11-15T13:58:25;15.20;99.90
6110;DHT22;3085;49.444;11.054;2022-11-15T14:00:59;15.30;99.90
6110;DHT22;3085;49.444;11.054;2022-11-15T14:03:28;15.30;99.90
6110;DHT22;3085;49.444;11.054;2022-11-15T14:06:09;15.10;99.90
6110;DHT22;3085;49.444;11.054;2022-11-15T14:08:39;15.00;99.90
6110;DHT22;3085;49.444;11.054;2022-11-15T14:11:14;15.20;99.90
6110;DHT22;3085;49.444;11.054;2022-11-15T14:13:50;15.00;99.90
6110;DHT22;3085;49.444;11.054;2022-11-15T14:16:33;15.20;99.90
6110;DHT22;3085;49.444;11.054;2022-11-15T14:19:01;15.10;99.90
6110;DHT22;3085;49.444;11.054;2022-11-15T14:21:28;14.90;99.90
6110;DHT22;3085;49.444;11.054;2022-11-15T14:24:15;14.70;99.90
6110;DHT22;3085;49.444;11.054;2022-11-15T14:26:43;14.40;99.90
6110;DHT22;3085;49.444;11.054;2022-11-15T14:29:23;14.20;99.90
6110;DHT22;3085;49.444;11.054;2022-11-15T14:31:50;14.20;99.90
6110;DHT22;3085;49.444;11.054;2022-11-15T14:34:17;14.00;99.90
6110;DHT22;3085;49.444;11.054;2022-11-15T14:36:44;14.00;99.90
6110;DHT22;3085;49.444;11.054;2022-11-15T14:39:11;13.90;99.90
6110;DHT22;3085;49.444;11.054;2022-11-15T14:41:39;13.80;99.90
6110;DHT22;3085;49.444;11.054;2022-11-15T14:44:09;13.80;99.90
6110;DHT22;3085;49.444;11.054;2022-11-15T14:46:37;13.70;99.90
6110;DHT22;3085;49.444;11.054;2022-11-15T14:49:03;13.70;99.90
6110;DHT22;3085;49.444;11.054;2022-11-15T14:51:30;13.60;99.90
6110;DHT22;3085;49.444;11.054;2022-11-15T14:53:58;13.60;99.90
6110;DHT22;3085;49.444;11.054;2022-11-15T14:56:25;13.50;99.90
6110;DHT22;3085;49.444;11.054;2022-11-15T14:58:53;13.50;99.90
6110;DHT22;3085;49.444;11.054;2022-11-15T15:01:23;13.40;99.90
6110;DHT22;3085;49.444;11.054;2022-11-15T15:03:50;13.30;99.90
6110;DHT22;3085;49.444;11.054;2022-11-15T15:06:18;13.30;99.90
6110;DHT22;3085;49.444;11.054;2022-11-15T15:08:45;13.30;99.90
6110;DHT22;3085;49.444;11.054;2022-11-15T15:11:16;13.20;99.90
6110;DHT22;3085;49.444;11.054;2022-11-15T15:13:44;13.20;99.90
6110;DHT22;3085;49.444;11.054;2022-11-15T15:16:12;13.20;99.90
6110;DHT22;3085;49.444;11.054;2022-11-15T15:18:39;13.10;99.90
6110;DHT22;3085;49.444;11.054;2022-11-15T15:21:17;13.10;99.90
6110;DHT22;3085;49.444;11.054;2022-11-15T15:23:45;13.00;99.90
6110;DHT22;3085;49.444;11.054;2022-11-15T15:26:12;13.00;99.90
6110;DHT22;3085;49.444;11.054;2022-11-15T15:28:39;12.90;99.90
6110;DHT22;3085;49.444;11.054;2022-11-15T15:31:05;12.90;99.90
6110;DHT22;3085;49.444;11.054;2022-11-15T15:33:35;12.80;99.90
6110;DHT22;3085;49.444;11.054;2022-11-15T15:36:02;12.80;99.90
6110;DHT22;3085;49.444;11.054;2022-11-15T15:38:29;12.70;99.90
6110;DHT22;3085;49.444;11.054;2022-11-15T15:40:56;12.90;99.90
6110;DHT22;3085;49.444;11.054;2022-11-15T15:43:25;14.10;99.90
6110;DHT22;3085;49.444;11.054;2022-11-15T15:45:51;12.70;99.90
6110;DHT22;3085;49.444;11.054;2022-11-15T15:48:18;12.60;99.90
6110;DHT22;3085;49.444;11.054;2022-11-15T15:50:47;12.60;99.90
6110;DHT22;3085;49.444;11.054;2022-11-15T15:53:14;12.60;99.90
6110;DHT22;3085;49.444;11.054;2022-11-15T15:55:55;12.50;99.90
6110;DHT22;3085;49.444;11.054;2022-11-15T15:58:22;13.00;99.90
6110;DHT22;3085;49.444;11.054;2022-11-15T16:00:49;12.70;99.90
6110;DHT22;3085;49.444;11.054;2022-11-15T16:03:16;13.80;99.90
6110;DHT22;3085;49.444;11.054;2022-11-15T16:05:43;12.40;99.90
6110;DHT22;3085;49.444;11.054;2022-11-15T16:08:17;12.40;99.90
6110;DHT22;3085;49.444;11.054;2022-11-15T16:10:45;12.50;99.90
6110;DHT22;3085;49.444;11.054;2022-11-15T16:13:12;12.40;99.90
6110;DHT22;3085;49.444;11.054;2022-11-15T16:15:39;12.40;99.90
6110;DHT22;3085;49.444;11.054;2022-11-15T16:18:06;12.40;99.90
6110;DHT22;3085;49.444;11.054;2022-11-15T16:20:38;12.40;99.90
6110;DHT22;3085;49.444;11.054;2022-11-15T16:23:09;12.40;99.90